Bequimao, Brazil
Current Conditions -  °F | °C
As of 6:00 AM on Sunday 26 Oct 2014 (Local Time) from SBSL Reporting Station
Few Clouds Few Clouds  
Wind Chill: 79°   Ceiling: Unl
Heat Index: 81°   Visibility: 6mi
Dew Point: 68°   Wind: 13mph
Humidity: 69%   Direction: 70°ENE
Pressure: 29.8"   Gusts: NA
Location:  2.45°S, 44.78°W
Report Text: SBSL 260900Z 07011KT 9999 FEW017 26/20 Q1009
Loading
Personal Weather Stations






























Interactive Weather Map
Tropical Storm Tracking
New forecast layout! Learn more

10-Day Weather Forecast

Advertisements
Track Severe Weather on mobile